createdAt,value
2022-10-28T00:01:15.290Z,100596.94
2022-10-28T00:03:48.123Z,100590.34
2022-10-28T00:06:18.548Z,100592.44
2022-10-28T00:08:46.037Z,100586.38
2022-10-28T00:11:17.396Z,100579.81
2022-10-28T00:13:45.540Z,100589.06
2022-10-28T00:16:18.094Z,100581.94
2022-10-28T00:18:45.421Z,100589.84
2022-10-28T00:21:18.352Z,100588.53
2022-10-28T00:23:46.186Z,100587.47
2022-10-28T00:26:19.837Z,100602.72
2022-10-28T00:28:49.665Z,100589.84
2022-10-28T00:31:19.324Z,100589.06
2022-10-28T00:33:47.123Z,100585.06
2022-10-28T00:36:15.958Z,100573.75
2022-10-28T00:38:44.665Z,100570.88
2022-10-28T00:41:15.054Z,100573.50
2022-10-28T00:43:48.415Z,100570.88
2022-10-28T00:46:36.797Z,100572.72
2022-10-28T00:49:12.936Z,100573.78
2022-10-28T00:51:40.027Z,100574.81
2022-10-28T00:54:07.968Z,100579.56
2022-10-28T00:56:40.453Z,100574.28
2022-10-28T00:59:13.523Z,100579.03
2022-10-28T01:01:40.639Z,100576.91
2022-10-28T01:04:09.202Z,100572.69
2022-10-28T01:06:36.270Z,100576.63
2022-10-28T01:09:03.569Z,100574.28
2022-10-28T01:12:00.557Z,100569.28
2022-10-28T01:14:57.550Z,100555.59
2022-10-28T01:18:00.685Z,100559.84
2022-10-28T01:20:27.469Z,100560.13
2022-10-28T01:23:05.557Z,100573.00
2022-10-28T01:25:49.647Z,100570.13
2022-10-28T01:28:43.177Z,100563.78
2022-10-28T01:31:17.056Z,100571.44
2022-10-28T01:34:17.809Z,100570.91
2022-10-28T01:36:59.397Z,100561.97
2022-10-28T01:39:32.498Z,100569.91
2022-10-28T01:42:05.413Z,100572.25
2022-10-28T01:45:15.716Z,100572.50
2022-10-28T01:47:50.218Z,100557.72
2022-10-28T01:50:27.143Z,100549.81
2022-10-28T01:52:58.559Z,100546.13
2022-10-28T01:55:35.969Z,100560.63
2022-10-28T01:58:06.439Z,100548.78
2022-10-28T02:00:36.377Z,100549.28
2022-10-28T02:03:06.100Z,100555.34
2022-10-28T02:05:53.937Z,100557.72
2022-10-28T02:09:02.892Z,100553.25
2022-10-28T02:11:54.180Z,100559.84
2022-10-28T02:14:41.871Z,100559.59
2022-10-28T02:17:46.761Z,100554.56
2022-10-28T02:21:01.262Z,100554.56
2022-10-28T02:23:33.873Z,100556.69
2022-10-28T02:26:35.753Z,100551.97
2022-10-28T02:29:17.770Z,100556.16
2022-10-28T02:31:52.998Z,100548.50
2022-10-28T02:34:26.181Z,100543.25
2022-10-28T02:36:55.602Z,100536.94
2022-10-28T02:39:29.535Z,100536.94
2022-10-28T02:42:06.486Z,100539.81
2022-10-28T02:44:39.653Z,100537.19
2022-10-28T02:47:15.091Z,100533.78
2022-10-28T02:49:47.524Z,100534.03
2022-10-28T02:52:17.525Z,100532.97
2022-10-28T02:54:52.796Z,100528.25
2022-10-28T02:57:29.893Z,100540.88
2022-10-28T03:00:03.187Z,100537.19
2022-10-28T03:02:30.022Z,100536.41
2022-10-28T03:04:57.054Z,100540.31
2022-10-28T03:07:23.973Z,100531.88
2022-10-28T03:09:50.745Z,100532.41
2022-10-28T03:12:18.035Z,100534.81
2022-10-28T03:14:44.847Z,100532.66
2022-10-28T03:17:11.633Z,100535.06
2022-10-28T03:19:38.473Z,100533.47
2022-10-28T03:22:05.260Z,100529.78
2022-10-28T03:24:32.314Z,100526.91
2022-10-28T03:26:59.045Z,100532.94
2022-10-28T03:29:26.104Z,100529.25
2022-10-28T03:31:52.926Z,100529.00
2022-10-28T03:34:19.764Z,100528.72
2022-10-28T03:36:46.573Z,100529.78
2022-10-28T03:39:14.644Z,100530.28
2022-10-28T03:41:41.615Z,100525.81
2022-10-28T03:44:08.545Z,100520.03
2022-10-28T03:46:36.172Z,100520.56
2022-10-28T03:49:04.657Z,100520.31
2022-10-28T03:51:31.405Z,100526.13
2022-10-28T03:53:58.507Z,100523.97
2022-10-28T03:56:25.355Z,100529.53
2022-10-28T04:01:20.057Z,100530.34
2022-10-28T04:03:46.872Z,100523.72
2022-10-28T04:06:13.844Z,100517.69
2022-10-28T04:08:40.671Z,100522.94
2022-10-28T04:11:07.739Z,100520.88
2022-10-28T04:13:34.881Z,100534.88
2022-10-28T04:16:01.640Z,100543.06
2022-10-28T04:18:28.459Z,100540.94
2022-10-28T04:20:55.333Z,100535.66
2022-10-28T04:23:22.130Z,100544.59
2022-10-28T04:25:53.153Z,100544.09
2022-10-28T04:28:21.374Z,100546.44
2022-10-28T04:30:48.222Z,100553.31
2022-10-28T04:33:16.372Z,100544.09
2022-10-28T04:35:43.221Z,100537.75
2022-10-28T04:38:12.196Z,100533.28
2022-10-28T04:40:39.268Z,100521.19
2022-10-28T04:43:08.520Z,100518.25
2022-10-28T04:45:38.323Z,100515.09
2022-10-28T04:48:05.359Z,100513.00
2022-10-28T04:50:32.295Z,100518.81
2022-10-28T04:53:00.240Z,100516.72
2022-10-28T04:55:28.097Z,100517.22
2022-10-28T04:57:56.763Z,100521.19
2022-10-28T05:00:24.946Z,100526.72
2022-10-28T05:02:57.179Z,100520.91
2022-10-28T05:05:24.620Z,100520.94
2022-10-28T05:07:52.261Z,100520.16
2022-10-28T05:10:19.517Z,100528.56
2022-10-28T05:12:46.454Z,100526.72
2022-10-28T05:15:14.915Z,100519.63
2022-10-28T05:17:46.565Z,100527.25
2022-10-28T05:20:15.835Z,100526.72
2022-10-28T05:22:54.250Z,100522.78
2022-10-28T05:25:22.109Z,100524.63
2022-10-28T05:27:49.967Z,100525.13
2022-10-28T05:30:17.884Z,100523.84
2022-10-28T05:32:44.837Z,100510.94
2022-10-28T05:35:11.911Z,100510.94
2022-10-28T05:37:38.702Z,100510.94
2022-10-28T05:40:05.900Z,100515.66
2022-10-28T05:42:32.671Z,100512.50
2022-10-28T05:44:59.470Z,100511.19
2022-10-28T05:47:26.299Z,100507.75
2022-10-28T05:49:54.097Z,100507.75
2022-10-28T05:52:21.557Z,100519.06
2022-10-28T05:54:50.513Z,100522.78
2022-10-28T05:57:18.333Z,100527.25
2022-10-28T05:59:46.224Z,100538.31
2022-10-28T06:02:15.138Z,100532.56
2022-10-28T06:04:42.966Z,100538.63
2022-10-28T06:07:10.791Z,100537.56
2022-10-28T06:09:37.724Z,100538.63
2022-10-28T06:12:05.055Z,100532.31
2022-10-28T06:14:31.887Z,100539.97
2022-10-28T06:16:58.705Z,100534.69
2022-10-28T06:19:25.547Z,100537.06
2022-10-28T06:21:52.300Z,100540.75
2022-10-28T06:24:19.122Z,100536.28
2022-10-28T06:26:46.175Z,100539.41
2022-10-28T06:29:13.061Z,100547.31
2022-10-28T06:31:41.226Z,100542.34
2022-10-28T06:34:09.033Z,100540.22
2022-10-28T06:36:35.850Z,100546.00
2022-10-28T06:39:03.097Z,100546.78
2022-10-28T06:41:30.163Z,100551.81
2022-10-28T06:43:56.921Z,100553.63
2022-10-28T06:46:24.090Z,100553.38
2022-10-28T06:48:54.519Z,100549.16
2022-10-28T06:51:22.199Z,100546.25
2022-10-28T06:53:50.226Z,100552.56
2022-10-28T06:56:17.906Z,100549.41
2022-10-28T06:58:44.796Z,100559.97
2022-10-28T07:01:11.773Z,100563.38
2022-10-28T07:03:38.563Z,100569.66
2022-10-28T07:06:05.704Z,100570.50
2022-10-28T07:08:32.564Z,100577.03
2022-10-28T07:11:00.489Z,100566.50
2022-10-28T07:13:28.420Z,100571.00
2022-10-28T07:15:58.166Z,100573.63
2022-10-28T07:18:27.854Z,100564.66
2022-10-28T07:20:58.047Z,100567.81
2022-10-28T07:23:24.908Z,100577.28
2022-10-28T07:25:54.637Z,100567.28
2022-10-28T07:28:25.577Z,100569.13
2022-10-28T07:30:52.710Z,100569.13
2022-10-28T07:33:19.715Z,100559.91
2022-10-28T07:35:46.617Z,100573.09
2022-10-28T07:38:13.486Z,100576.78
2022-10-28T07:40:40.305Z,100578.09
2022-10-28T07:43:07.094Z,100592.06
2022-10-28T07:45:35.359Z,100588.09
2022-10-28T07:48:04.629Z,100593.88
2022-10-28T07:50:31.438Z,100590.47
2022-10-28T07:52:58.302Z,100593.09
2022-10-28T07:55:25.068Z,100600.22
2022-10-28T07:57:52.296Z,100606.50
2022-10-28T08:00:19.392Z,100606.25
2022-10-28T08:02:46.590Z,100611.78
2022-10-28T08:05:13.426Z,100599.13
2022-10-28T08:07:40.405Z,100599.91
2022-10-28T08:10:07.856Z,100593.84
2022-10-28T08:12:34.680Z,100599.13
2022-10-28T08:15:01.560Z,100599.41
2022-10-28T08:17:28.337Z,100586.22
2022-10-28T08:19:55.131Z,100578.88
2022-10-28T08:22:21.850Z,100576.75
2022-10-28T08:24:48.868Z,100576.19
2022-10-28T08:27:15.650Z,100572.28
2022-10-28T08:29:42.428Z,100574.63
2022-10-28T08:32:09.207Z,100577.03
2022-10-28T08:34:39.282Z,100581.25
2022-10-28T08:37:09.486Z,100586.22
2022-10-28T08:39:37.158Z,100585.44
2022-10-28T08:42:26.785Z,100584.38
2022-10-28T08:45:16.050Z,100577.03
2022-10-28T08:48:12.110Z,100583.59
2022-10-28T08:50:50.234Z,100592.81
2022-10-28T08:53:25.395Z,100580.16
2022-10-28T08:55:56.800Z,100585.69
2022-10-28T08:58:30.866Z,100587.25
2022-10-28T09:00:59.085Z,100592.25
2022-10-28T09:03:28.328Z,100603.34
2022-10-28T09:06:04.136Z,100599.91
2022-10-28T09:08:39.065Z,100601.22
2022-10-28T09:11:11.846Z,100604.13
2022-10-28T09:14:04.674Z,100606.25
2022-10-28T09:16:37.186Z,100602.28
2022-10-28T09:19:22.779Z,100601.22
2022-10-28T09:21:58.587Z,100606.75
2022-10-28T09:24:51.367Z,100603.03
2022-10-28T09:28:00.878Z,100600.41
2022-10-28T09:30:42.159Z,100600.94
2022-10-28T09:33:27.488Z,100584.84
2022-10-28T09:35:55.254Z,100581.97
2022-10-28T09:38:28.771Z,100588.56
2022-10-28T09:41:21.781Z,100583.56
2022-10-28T09:44:01.732Z,100589.59
2022-10-28T09:46:33.332Z,100584.84
2022-10-28T09:49:06.236Z,100589.84
2022-10-28T09:51:39.143Z,100586.16
2022-10-28T09:54:06.064Z,100595.13
2022-10-28T09:56:32.976Z,100603.00
2022-10-28T10:01:52.899Z,100602.22
2022-10-28T10:04:23.004Z,100604.59
2022-10-28T10:07:00.451Z,100602.22
2022-10-28T10:09:31.157Z,100606.16
2022-10-28T10:12:06.546Z,100615.63
2022-10-28T10:14:45.400Z,100614.31
2022-10-28T10:17:18.876Z,100609.81
2022-10-28T10:20:09.058Z,100604.31
2022-10-28T10:22:44.398Z,100603.50
2022-10-28T10:25:20.246Z,100599.84
2022-10-28T10:28:16.686Z,100579.56
2022-10-28T10:30:51.139Z,100588.22
2022-10-28T10:33:24.117Z,100582.94
2022-10-28T10:36:00.271Z,100587.66
2022-10-28T10:38:29.256Z,100590.84
2022-10-28T10:40:56.594Z,100590.03
2022-10-28T10:43:34.799Z,100592.94
2022-10-28T10:46:19.664Z,100581.31
2022-10-28T10:49:06.270Z,100585.81
2022-10-28T10:51:35.272Z,100589.22
2022-10-28T10:54:04.601Z,100596.09
2022-10-28T10:56:33.501Z,100587.66
2022-10-28T10:59:06.201Z,100585.31
2022-10-28T11:01:36.898Z,100585.03
2022-10-28T11:04:08.602Z,100584.28
2022-10-28T11:06:41.859Z,100576.34
2022-10-28T11:09:32.812Z,100586.06
2022-10-28T11:12:00.112Z,100588.69
2022-10-28T11:14:31.523Z,100591.81
2022-10-28T11:17:01.385Z,100581.81
2022-10-28T11:19:33.463Z,100594.16
2022-10-28T11:22:09.161Z,100583.63
2022-10-28T11:25:00.624Z,100578.63
2022-10-28T11:27:38.629Z,100578.59
2022-10-28T11:30:10.992Z,100578.06
2022-10-28T11:33:28.211Z,100580.16
2022-10-28T11:35:59.713Z,100568.28
2022-10-28T11:38:45.727Z,100566.19
2022-10-28T11:41:34.493Z,100567.75
2022-10-28T11:44:05.560Z,100555.09
2022-10-28T11:46:52.365Z,100563.25
2022-10-28T11:49:37.616Z,100564.53
2022-10-28T11:52:29.911Z,100564.28
2022-10-28T11:55:36.528Z,100561.94
2022-10-28T11:58:24.869Z,100561.41
2022-10-28T12:01:18.750Z,100556.91
2022-10-28T12:04:05.742Z,100562.41
2022-10-28T12:06:50.824Z,100562.97
2022-10-28T12:09:26.648Z,100554.50
2022-10-28T12:12:18.199Z,100546.31
2022-10-28T12:15:10.989Z,100552.41
2022-10-28T12:18:23.077Z,100540.25
2022-10-28T12:21:11.522Z,100535.97
2022-10-28T12:23:41.251Z,100527.28
2022-10-28T12:26:13.738Z,100532.03
2022-10-28T12:28:50.200Z,100534.91
2022-10-28T12:31:27.203Z,100527.47
2022-10-28T12:33:58.702Z,100527.53
2022-10-28T12:36:43.109Z,100529.31
2022-10-28T12:39:39.884Z,100534.59
2022-10-28T12:42:35.667Z,100527.75
2022-10-28T12:45:06.945Z,100520.34
2022-10-28T12:47:53.211Z,100514.03
2022-10-28T12:50:40.592Z,100516.13
2022-10-28T12:53:16.243Z,100521.13
2022-10-28T12:55:49.428Z,100519.25
2022-10-28T12:58:20.539Z,100514.25
2022-10-28T13:01:04.355Z,100520.31
2022-10-28T13:03:32.154Z,100520.31
2022-10-28T13:09:40.234Z,100519.78
2022-10-28T13:12:31.218Z,100512.19
2022-10-28T13:15:16.493Z,100515.63
2022-10-28T13:18:11.141Z,100512.75
2022-10-28T13:20:58.132Z,100510.91
2022-10-28T13:23:39.970Z,100520.41
2022-10-28T13:26:36.988Z,100511.41
2022-10-28T13:29:19.343Z,100509.78
2022-10-28T13:31:48.102Z,100502.94
2022-10-28T13:34:18.942Z,100506.38
2022-10-28T13:36:58.792Z,100501.09
2022-10-28T13:39:39.283Z,100510.88
2022-10-28T13:42:15.261Z,100510.91
2022-10-28T13:45:04.804Z,100514.34
2022-10-28T13:47:33.301Z,100514.09
2022-10-28T13:50:06.084Z,100510.16
2022-10-28T13:52:43.874Z,100514.88
2022-10-28T13:55:16.484Z,100513.78
2022-10-28T13:57:46.793Z,100509.53
2022-10-28T14:00:19.733Z,100508.97
2022-10-28T14:02:55.791Z,100522.16
2022-10-28T14:05:47.247Z,100517.69
2022-10-28T14:08:39.286Z,100517.69
2022-10-28T14:11:22.204Z,100519.84
2022-10-28T14:13:50.493Z,100517.22
2022-10-28T14:16:30.632Z,100526.97
2022-10-28T14:19:05.446Z,100526.69
2022-10-28T14:22:03.231Z,100520.16
2022-10-28T14:24:34.726Z,100526.75
2022-10-28T14:27:08.010Z,100526.28
2022-10-28T14:29:56.758Z,100530.97
2022-10-28T14:32:33.234Z,100525.69
2022-10-28T14:35:04.356Z,100524.66
2022-10-28T14:38:03.604Z,100522.28
2022-10-28T14:40:46.914Z,100518.63
2022-10-28T14:43:16.485Z,100519.47
2022-10-28T14:46:12.770Z,100520.00
2022-10-28T14:48:44.734Z,100513.97
2022-10-28T14:51:19.676Z,100509.44
2022-10-28T14:53:47.989Z,100505.78
2022-10-28T14:56:25.190Z,100503.94
2022-10-28T14:58:54.412Z,100504.75
2022-10-28T15:01:48.524Z,100511.13
2022-10-28T15:04:21.342Z,100506.41
2022-10-28T15:06:51.197Z,100505.09
2022-10-28T15:09:30.807Z,100501.66
2022-10-28T15:12:05.687Z,100502.69
2022-10-28T15:14:35.495Z,100504.25
2022-10-28T15:17:15.086Z,100509.47
2022-10-28T15:19:43.347Z,100497.09
2022-10-28T15:22:16.898Z,100498.91
2022-10-28T15:24:54.146Z,100495.78
2022-10-28T15:27:22.339Z,100500.28
2022-10-28T15:29:49.998Z,100495.06
2022-10-28T15:32:20.079Z,100491.59
2022-10-28T15:34:47.892Z,100486.88
2022-10-28T15:37:24.444Z,100483.19
2022-10-28T15:39:52.579Z,100478.72
2022-10-28T15:42:28.377Z,100485.25
2022-10-28T15:44:55.749Z,100491.88
2022-10-28T15:47:28.350Z,100496.09
2022-10-28T15:50:26.014Z,100504.00
2022-10-28T15:52:55.180Z,100500.06
2022-10-28T15:55:26.788Z,100506.13
2022-10-28T15:58:15.088Z,100511.47
2022-10-28T16:00:53.622Z,100512.75
2022-10-28T16:03:48.256Z,100514.13
2022-10-28T16:06:33.254Z,100511.78
2022-10-28T16:09:07.507Z,100507.00
2022-10-28T16:11:36.868Z,100506.22
2022-10-28T16:14:24.663Z,100503.09
2022-10-28T16:16:51.617Z,100496.47
2022-10-28T16:19:29.670Z,100494.34
2022-10-28T16:21:56.502Z,100494.06
2022-10-28T16:24:23.237Z,100488.53
2022-10-28T16:26:50.105Z,100489.81
2022-10-28T16:29:16.997Z,100487.50
2022-10-28T16:31:46.155Z,100483.56
2022-10-28T16:34:14.872Z,100482.25
2022-10-28T16:36:41.623Z,100479.84
2022-10-28T16:39:12.917Z,100486.13
2022-10-28T16:41:40.069Z,100472.72
2022-10-28T16:44:18.243Z,100471.38
2022-10-28T16:46:45.422Z,100469.00
2022-10-28T16:49:12.567Z,100471.88
2022-10-28T16:51:39.495Z,100480.31
2022-10-28T16:54:06.566Z,100484.78
2022-10-28T16:56:33.455Z,100484.00
2022-10-28T16:59:00.305Z,100483.22
2022-10-28T17:01:27.493Z,100492.97
2022-10-28T17:03:54.676Z,100501.44
2022-10-28T17:06:21.958Z,100496.44
2022-10-28T17:09:02.299Z,100503.03
2022-10-28T17:13:58.286Z,100507.28
2022-10-28T17:16:25.430Z,100509.63
2022-10-28T17:18:52.669Z,100515.69
2022-10-28T17:21:19.790Z,100520.47
2022-10-28T17:23:47.058Z,100517.53
2022-10-28T17:26:15.355Z,100510.16
2022-10-28T17:28:42.418Z,100507.00
2022-10-28T17:31:09.327Z,100502.50
2022-10-28T17:33:36.507Z,100508.59
2022-10-28T17:36:06.147Z,100503.09
2022-10-28T17:38:33.522Z,100499.13
2022-10-28T17:41:02.367Z,100504.91
2022-10-28T17:43:29.607Z,100504.13
2022-10-28T17:46:05.736Z,100498.84
2022-10-28T17:48:34.974Z,100507.03
2022-10-28T17:51:02.200Z,100504.38
2022-10-28T17:53:29.657Z,100499.63
2022-10-28T17:56:02.875Z,100507.28
2022-10-28T17:58:31.132Z,100508.59
2022-10-28T18:01:08.116Z,100509.94
2022-10-28T18:03:38.504Z,100508.91
2022-10-28T18:06:11.702Z,100501.00
2022-10-28T18:08:42.201Z,100507.59
2022-10-28T18:11:12.992Z,100512.84
2022-10-28T18:13:42.666Z,100503.38
2022-10-28T18:16:13.283Z,100506.00
2022-10-28T18:18:42.558Z,100508.09
2022-10-28T18:21:11.834Z,100510.47
2022-10-28T18:23:40.192Z,100509.94
2022-10-28T18:26:17.466Z,100504.66
2022-10-28T18:28:47.107Z,100500.16
2022-10-28T18:31:17.108Z,100500.47
2022-10-28T18:33:45.621Z,100505.19
2022-10-28T18:36:22.021Z,100511.25
2022-10-28T18:38:50.580Z,100501.00
2022-10-28T18:41:20.341Z,100498.06
2022-10-28T18:43:47.842Z,100500.16
2022-10-28T18:46:15.044Z,100505.97
2022-10-28T18:48:42.534Z,100497.53
2022-10-28T18:51:14.675Z,100495.69
2022-10-28T18:53:44.766Z,100496.22
2022-10-28T18:56:16.015Z,100488.84
2022-10-28T18:58:49.605Z,100480.41
2022-10-28T19:01:20.280Z,100484.63
2022-10-28T19:03:53.454Z,100483.56
2022-10-28T19:06:21.828Z,100486.19
2022-10-28T19:08:56.765Z,100485.13
2022-10-28T19:11:29.904Z,100498.59
2022-10-28T19:13:59.146Z,100497.25
2022-10-28T19:16:27.642Z,100493.03
2022-10-28T19:18:59.567Z,100486.69
2022-10-28T19:21:29.696Z,100481.19
2022-10-28T19:23:57.703Z,100493.31
2022-10-28T19:26:24.988Z,100472.50
2022-10-28T19:28:52.757Z,100479.09
2022-10-28T19:31:25.608Z,100478.78
2022-10-28T19:33:55.577Z,100479.88
2022-10-28T19:36:26.894Z,100475.66
2022-10-28T19:38:55.710Z,100477.00
2022-10-28T19:41:28.069Z,100478.56
2022-10-28T19:44:00.199Z,100477.00
2022-10-28T19:46:30.267Z,100480.66
2022-10-28T19:48:59.422Z,100485.72
2022-10-28T19:51:29.673Z,100487.59
2022-10-28T19:53:59.485Z,100484.41
2022-10-28T19:56:29.931Z,100481.00
2022-10-28T19:59:00.662Z,100485.47
2022-10-28T20:01:33.749Z,100484.69
2022-10-28T20:04:01.672Z,100497.34
2022-10-28T20:06:33.832Z,100481.28
2022-10-28T20:09:01.755Z,100482.59
2022-10-28T20:11:31.453Z,100498.13
2022-10-28T20:14:00.749Z,100492.31
2022-10-28T20:16:28.251Z,100507.59
2022-10-28T20:18:56.921Z,100504.13
2022-10-28T20:21:27.512Z,100500.94
2022-10-28T20:23:57.101Z,100505.16
2022-10-28T20:26:30.392Z,100503.09
2022-10-28T20:28:59.185Z,100503.34
2022-10-28T20:31:28.055Z,100501.72
2022-10-28T20:33:57.345Z,100490.66
2022-10-28T20:36:27.915Z,100491.72
2022-10-28T20:39:03.581Z,100494.59
2022-10-28T20:41:33.698Z,100490.94
2022-10-28T20:44:01.064Z,100499.34
2022-10-28T20:46:29.050Z,100488.78
2022-10-28T20:48:55.912Z,100486.44
2022-10-28T20:51:28.707Z,100488.78
2022-10-28T20:53:55.856Z,100482.75
2022-10-28T20:56:28.682Z,100471.94
2022-10-28T20:58:56.443Z,100482.19
2022-10-28T21:01:27.092Z,100480.09
2022-10-28T21:04:04.167Z,100467.69
2022-10-28T21:06:31.965Z,100479.00
2022-10-28T21:08:59.462Z,100471.41
2022-10-28T21:11:28.028Z,100475.84
2022-10-28T21:13:58.065Z,100482.72
2022-10-28T21:16:26.696Z,100479.81
2022-10-28T21:18:54.319Z,100476.88
2022-10-28T21:21:23.667Z,100476.06
2022-10-28T21:23:50.637Z,100469.50
2022-10-28T21:26:17.519Z,100478.97
2022-10-28T21:28:44.306Z,100471.34
2022-10-28T21:31:14.187Z,100477.41
2022-10-28T21:33:42.253Z,100466.84
2022-10-28T21:36:20.880Z,100465.78
2022-10-28T21:38:48.269Z,100473.19
2022-10-28T21:41:17.816Z,100465.78
2022-10-28T21:43:47.362Z,100460.81
2022-10-28T21:46:14.849Z,100463.16
2022-10-28T21:48:42.002Z,100451.59
2022-10-28T21:51:14.605Z,100466.34
2022-10-28T21:53:43.303Z,100463.16
2022-10-28T21:56:18.086Z,100457.63
2022-10-28T21:58:48.067Z,100463.16
2022-10-28T22:01:18.833Z,100464.50
2022-10-28T22:03:46.333Z,100461.81
2022-10-28T22:06:14.658Z,100467.09
2022-10-28T22:08:41.627Z,100463.16
2022-10-28T22:11:16.170Z,100458.91
2022-10-28T22:13:44.606Z,100459.44
2022-10-28T22:16:15.940Z,100450.50
2022-10-28T22:18:43.750Z,100449.44
2022-10-28T22:21:15.188Z,100456.25
2022-10-28T22:23:42.198Z,100451.50
2022-10-28T22:26:12.291Z,100459.19
2022-10-28T22:28:39.930Z,100448.69
2022-10-28T22:31:09.341Z,100461.59
2022-10-28T22:33:37.313Z,100458.41
2022-10-28T22:36:12.738Z,100445.78
2022-10-28T22:38:41.611Z,100442.59
2022-10-28T22:41:13.177Z,100447.88
2022-10-28T22:43:41.613Z,100447.88
2022-10-28T22:46:11.951Z,100440.78
2022-10-28T22:48:38.992Z,100440.78
2022-10-28T22:51:06.742Z,100443.91
2022-10-28T22:53:33.480Z,100443.38
2022-10-28T22:56:00.291Z,100439.41
2022-10-28T22:58:27.899Z,100441.50
2022-10-28T23:01:05.615Z,100444.38
2022-10-28T23:03:40.398Z,100439.41
2022-10-28T23:06:08.386Z,100439.94
2022-10-28T23:08:37.047Z,100439.41
2022-10-28T23:11:04.994Z,100442.31
2022-10-28T23:13:32.536Z,100443.91
2022-10-28T23:16:04.025Z,100439.41
2022-10-28T23:18:31.285Z,100435.69
2022-10-28T23:21:04.635Z,100433.28
2022-10-28T23:23:31.764Z,100428.31
2022-10-28T23:25:58.884Z,100425.63
2022-10-28T23:28:26.263Z,100423.50
2022-10-28T23:30:53.847Z,100426.16
2022-10-28T23:33:20.884Z,100430.94
2022-10-28T23:36:02.506Z,100419.88
2022-10-28T23:38:29.663Z,100422.22
2022-10-28T23:40:58.463Z,100428.56
2022-10-28T23:43:26.902Z,100423.03
2022-10-28T23:45:54.489Z,100426.16
2022-10-28T23:48:21.544Z,100419.56
2022-10-28T23:50:49.124Z,100418.78
2022-10-28T23:53:16.878Z,100424.06
2022-10-28T23:55:45.237Z,100421.66
2022-10-28T23:58:13.412Z,100427.72
